sensor_id;sensor_type;location;lat;lon;timestamp;P1;durP1;ratioP1;P2;durP2;ratioP2
20865;SDS011;10593;48.398;10.698;2024-03-06T00:00:06;6.63;;;6.13;;
20865;SDS011;10593;48.398;10.698;2024-03-06T00:02:33;7.07;;;6.53;;
20865;SDS011;10593;48.398;10.698;2024-03-06T00:05:01;7.37;;;6.80;;
20865;SDS011;10593;48.398;10.698;2024-03-06T00:07:27;6.87;;;6.33;;
20865;SDS011;10593;48.398;10.698;2024-03-06T00:09:52;7.00;;;6.40;;
20865;SDS011;10593;48.398;10.698;2024-03-06T00:12:18;7.17;;;6.53;;
20865;SDS011;10593;48.398;10.698;2024-03-06T00:14:44;6.90;;;6.33;;
20865;SDS011;10593;48.398;10.698;2024-03-06T00:17:10;6.70;;;6.20;;
20865;SDS011;10593;48.398;10.698;2024-03-06T00:19:35;7.10;;;6.60;;
20865;SDS011;10593;48.398;10.698;2024-03-06T00:22:01;6.73;;;6.23;;
20865;SDS011;10593;48.398;10.698;2024-03-06T00:24:27;6.53;;;6.03;;
20865;SDS011;10593;48.398;10.698;2024-03-06T00:26:53;7.00;;;6.50;;
20865;SDS011;10593;48.398;10.698;2024-03-06T00:29:18;7.30;;;6.70;;
20865;SDS011;10593;48.398;10.698;2024-03-06T00:31:45;6.73;;;6.17;;
20865;SDS011;10593;48.398;10.698;2024-03-06T00:34:11;6.50;;;6.00;;
20865;SDS011;10593;48.398;10.698;2024-03-06T00:36:39;6.90;;;6.40;;
20865;SDS011;10593;48.398;10.698;2024-03-06T00:39:05;7.63;;;6.93;;
20865;SDS011;10593;48.398;10.698;2024-03-06T00:41:32;6.40;;;5.90;;
20865;SDS011;10593;48.398;10.698;2024-03-06T00:43:59;7.00;;;6.50;;
20865;SDS011;10593;48.398;10.698;2024-03-06T00:46:25;6.17;;;5.67;;
20865;SDS011;10593;48.398;10.698;2024-03-06T00:48:51;6.73;;;6.23;;
20865;SDS011;10593;48.398;10.698;2024-03-06T00:51:16;6.80;;;6.30;;
20865;SDS011;10593;48.398;10.698;2024-03-06T00:53:42;6.60;;;6.10;;
20865;SDS011;10593;48.398;10.698;2024-03-06T00:56:09;7.20;;;6.60;;
20865;SDS011;10593;48.398;10.698;2024-03-06T00:58:34;6.80;;;6.27;;
20865;SDS011;10593;48.398;10.698;2024-03-06T01:01:00;7.37;;;6.67;;
20865;SDS011;10593;48.398;10.698;2024-03-06T01:03:26;7.10;;;6.50;;
20865;SDS011;10593;48.398;10.698;2024-03-06T01:05:51;6.70;;;6.20;;
20865;SDS011;10593;48.398;10.698;2024-03-06T01:08:18;7.00;;;6.40;;
20865;SDS011;10593;48.398;10.698;2024-03-06T01:10:44;6.67;;;6.17;;
20865;SDS011;10593;48.398;10.698;2024-03-06T01:13:10;7.40;;;6.70;;
20865;SDS011;10593;48.398;10.698;2024-03-06T01:15:36;6.10;;;5.67;;
20865;SDS011;10593;48.398;10.698;2024-03-06T01:18:03;7.43;;;6.83;;
20865;SDS011;10593;48.398;10.698;2024-03-06T01:20:29;6.63;;;6.13;;
20865;SDS011;10593;48.398;10.698;2024-03-06T01:22:55;6.30;;;5.80;;
20865;SDS011;10593;48.398;10.698;2024-03-06T01:25:20;7.27;;;6.57;;
20865;SDS011;10593;48.398;10.698;2024-03-06T01:27:49;6.80;;;6.20;;
20865;SDS011;10593;48.398;10.698;2024-03-06T01:30:14;6.87;;;6.27;;
20865;SDS011;10593;48.398;10.698;2024-03-06T01:32:40;6.63;;;6.13;;
20865;SDS011;10593;48.398;10.698;2024-03-06T01:35:06;6.93;;;6.33;;
20865;SDS011;10593;48.398;10.698;2024-03-06T01:37:32;7.27;;;6.67;;
20865;SDS011;10593;48.398;10.698;2024-03-06T01:39:58;6.90;;;6.40;;
20865;SDS011;10593;48.398;10.698;2024-03-06T01:42:24;7.73;;;7.13;;
20865;SDS011;10593;48.398;10.698;2024-03-06T01:44:50;7.03;;;6.43;;
20865;SDS011;10593;48.398;10.698;2024-03-06T01:47:15;6.63;;;6.03;;
20865;SDS011;10593;48.398;10.698;2024-03-06T01:49:41;6.70;;;6.20;;
20865;SDS011;10593;48.398;10.698;2024-03-06T01:52:08;6.50;;;6.00;;
20865;SDS011;10593;48.398;10.698;2024-03-06T01:54:38;7.63;;;7.03;;
20865;SDS011;10593;48.398;10.698;2024-03-06T01:57:04;6.73;;;6.20;;
20865;SDS011;10593;48.398;10.698;2024-03-06T01:59:32;7.27;;;6.67;;
20865;SDS011;10593;48.398;10.698;2024-03-06T02:01:59;7.20;;;6.60;;
20865;SDS011;10593;48.398;10.698;2024-03-06T02:04:26;6.83;;;6.30;;
20865;SDS011;10593;48.398;10.698;2024-03-06T02:06:53;7.20;;;6.60;;
20865;SDS011;10593;48.398;10.698;2024-03-06T02:09:19;6.30;;;5.80;;
20865;SDS011;10593;48.398;10.698;2024-03-06T02:11:45;7.03;;;6.47;;
20865;SDS011;10593;48.398;10.698;2024-03-06T02:14:11;6.83;;;6.23;;
20865;SDS011;10593;48.398;10.698;2024-03-06T02:16:37;6.70;;;6.17;;
20865;SDS011;10593;48.398;10.698;2024-03-06T02:19:06;6.93;;;6.33;;
20865;SDS011;10593;48.398;10.698;2024-03-06T02:21:33;7.67;;;6.90;;
20865;SDS011;10593;48.398;10.698;2024-03-06T02:23:59;6.57;;;5.90;;
20865;SDS011;10593;48.398;10.698;2024-03-06T02:26:25;6.63;;;6.13;;
20865;SDS011;10593;48.398;10.698;2024-03-06T02:28:52;6.70;;;6.20;;
20865;SDS011;10593;48.398;10.698;2024-03-06T02:31:20;6.93;;;6.30;;
20865;SDS011;10593;48.398;10.698;2024-03-06T02:33:48;7.00;;;6.40;;
20865;SDS011;10593;48.398;10.698;2024-03-06T02:36:14;6.87;;;6.27;;
20865;SDS011;10593;48.398;10.698;2024-03-06T02:38:45;6.40;;;5.90;;
20865;SDS011;10593;48.398;10.698;2024-03-06T02:41:11;6.77;;;6.17;;
20865;SDS011;10593;48.398;10.698;2024-03-06T02:43:39;6.70;;;6.13;;
20865;SDS011;10593;48.398;10.698;2024-03-06T02:46:04;6.77;;;6.00;;
20865;SDS011;10593;48.398;10.698;2024-03-06T02:48:30;6.90;;;6.20;;
20865;SDS011;10593;48.398;10.698;2024-03-06T02:50:56;6.50;;;6.00;;
20865;SDS011;10593;48.398;10.698;2024-03-06T02:53:22;6.33;;;5.80;;
20865;SDS011;10593;48.398;10.698;2024-03-06T02:55:50;6.30;;;5.80;;
20865;SDS011;10593;48.398;10.698;2024-03-06T02:58:16;7.10;;;6.43;;
20865;SDS011;10593;48.398;10.698;2024-03-06T03:00:42;6.60;;;6.03;;
20865;SDS011;10593;48.398;10.698;2024-03-06T03:03:09;5.87;;;5.47;;
20865;SDS011;10593;48.398;10.698;2024-03-06T03:05:37;6.40;;;5.90;;
20865;SDS011;10593;48.398;10.698;2024-03-06T03:08:04;6.47;;;5.97;;
20865;SDS011;10593;48.398;10.698;2024-03-06T03:10:30;6.47;;;5.90;;
20865;SDS011;10593;48.398;10.698;2024-03-06T03:12:56;6.40;;;5.90;;
20865;SDS011;10593;48.398;10.698;2024-03-06T03:15:22;6.53;;;6.03;;
20865;SDS011;10593;48.398;10.698;2024-03-06T03:17:47;6.70;;;6.10;;
20865;SDS011;10593;48.398;10.698;2024-03-06T03:20:13;6.80;;;6.20;;
20865;SDS011;10593;48.398;10.698;2024-03-06T03:22:41;6.40;;;5.90;;
20865;SDS011;10593;48.398;10.698;2024-03-06T03:25:08;6.80;;;6.23;;
20865;SDS011;10593;48.398;10.698;2024-03-06T03:27:36;6.60;;;6.03;;
20865;SDS011;10593;48.398;10.698;2024-03-06T03:30:09;7.17;;;6.57;;
20865;SDS011;10593;48.398;10.698;2024-03-06T03:32:35;6.53;;;6.03;;
20865;SDS011;10593;48.398;10.698;2024-03-06T03:35:03;6.73;;;6.13;;
20865;SDS011;10593;48.398;10.698;2024-03-06T03:37:30;6.70;;;6.07;;
20865;SDS011;10593;48.398;10.698;2024-03-06T03:39:56;6.60;;;6.10;;
20865;SDS011;10593;48.398;10.698;2024-03-06T03:42:22;7.23;;;6.53;;
20865;SDS011;10593;48.398;10.698;2024-03-06T03:44:47;6.87;;;6.30;;
20865;SDS011;10593;48.398;10.698;2024-03-06T03:47:13;6.40;;;5.90;;
20865;SDS011;10593;48.398;10.698;2024-03-06T03:49:39;7.10;;;6.50;;
20865;SDS011;10593;48.398;10.698;2024-03-06T03:52:04;6.90;;;6.27;;
20865;SDS011;10593;48.398;10.698;2024-03-06T03:54:30;6.97;;;6.37;;
20865;SDS011;10593;48.398;10.698;2024-03-06T03:56:56;6.73;;;6.13;;
20865;SDS011;10593;48.398;10.698;2024-03-06T03:59:24;7.20;;;6.60;;
20865;SDS011;10593;48.398;10.698;2024-03-06T04:01:50;7.23;;;6.63;;
20865;SDS011;10593;48.398;10.698;2024-03-06T04:04:16;6.90;;;6.37;;
20865;SDS011;10593;48.398;10.698;2024-03-06T04:06:42;7.17;;;6.57;;
20865;SDS011;10593;48.398;10.698;2024-03-06T04:09:08;7.07;;;6.37;;
20865;SDS011;10593;48.398;10.698;2024-03-06T04:11:36;6.83;;;6.33;;
20865;SDS011;10593;48.398;10.698;2024-03-06T04:14:05;6.90;;;6.40;;
20865;SDS011;10593;48.398;10.698;2024-03-06T04:16:32;7.27;;;6.73;;
20865;SDS011;10593;48.398;10.698;2024-03-06T04:18:58;6.83;;;6.33;;
20865;SDS011;10593;48.398;10.698;2024-03-06T04:21:24;7.50;;;6.90;;
20865;SDS011;10593;48.398;10.698;2024-03-06T04:23:50;7.20;;;6.60;;
20865;SDS011;10593;48.398;10.698;2024-03-06T04:26:16;6.80;;;6.23;;
20865;SDS011;10593;48.398;10.698;2024-03-06T04:28:42;7.13;;;6.53;;
20865;SDS011;10593;48.398;10.698;2024-03-06T04:31:08;7.00;;;6.40;;
20865;SDS011;10593;48.398;10.698;2024-03-06T04:33:35;7.10;;;6.50;;
20865;SDS011;10593;48.398;10.698;2024-03-06T04:36:01;7.13;;;6.53;;
20865;SDS011;10593;48.398;10.698;2024-03-06T04:38:29;6.37;;;5.87;;
20865;SDS011;10593;48.398;10.698;2024-03-06T04:40:54;6.53;;;6.03;;
20865;SDS011;10593;48.398;10.698;2024-03-06T04:43:20;6.63;;;6.13;;
20865;SDS011;10593;48.398;10.698;2024-03-06T04:45:45;7.07;;;6.47;;
20865;SDS011;10593;48.398;10.698;2024-03-06T04:48:11;7.03;;;6.47;;
20865;SDS011;10593;48.398;10.698;2024-03-06T04:50:37;6.97;;;6.37;;
20865;SDS011;10593;48.398;10.698;2024-03-06T04:53:03;7.30;;;6.70;;
20865;SDS011;10593;48.398;10.698;2024-03-06T04:55:28;7.60;;;6.90;;
20865;SDS011;10593;48.398;10.698;2024-03-06T04:57:55;7.90;;;7.30;;
20865;SDS011;10593;48.398;10.698;2024-03-06T05:00:21;7.50;;;6.90;;
20865;SDS011;10593;48.398;10.698;2024-03-06T05:02:48;7.90;;;7.30;;
20865;SDS011;10593;48.398;10.698;2024-03-06T05:05:16;7.33;;;6.73;;
20865;SDS011;10593;48.398;10.698;2024-03-06T05:07:42;8.33;;;7.63;;
20865;SDS011;10593;48.398;10.698;2024-03-06T05:10:07;7.47;;;6.87;;
20865;SDS011;10593;48.398;10.698;2024-03-06T05:12:33;7.83;;;7.23;;
20865;SDS011;10593;48.398;10.698;2024-03-06T05:14:59;8.10;;;7.43;;
20865;SDS011;10593;48.398;10.698;2024-03-06T05:17:25;7.93;;;7.33;;
20865;SDS011;10593;48.398;10.698;2024-03-06T05:19:51;8.50;;;7.80;;
20865;SDS011;10593;48.398;10.698;2024-03-06T05:22:17;8.57;;;7.87;;
20865;SDS011;10593;48.398;10.698;2024-03-06T05:24:43;8.43;;;7.73;;
20865;SDS011;10593;48.398;10.698;2024-03-06T05:27:09;8.67;;;7.97;;
20865;SDS011;10593;48.398;10.698;2024-03-06T05:29:38;8.53;;;7.87;;
20865;SDS011;10593;48.398;10.698;2024-03-06T05:32:04;8.67;;;7.97;;
20865;SDS011;10593;48.398;10.698;2024-03-06T05:34:32;9.27;;;8.40;;
20865;SDS011;10593;48.398;10.698;2024-03-06T05:36:58;9.07;;;8.27;;
20865;SDS011;10593;48.398;10.698;2024-03-06T05:39:26;9.93;;;9.03;;
20865;SDS011;10593;48.398;10.698;2024-03-06T05:41:53;9.10;;;8.40;;
20865;SDS011;10593;48.398;10.698;2024-03-06T05:44:20;9.40;;;8.63;;
20865;SDS011;10593;48.398;10.698;2024-03-06T05:46:46;9.63;;;8.73;;
20865;SDS011;10593;48.398;10.698;2024-03-06T05:49:12;10.23;;;9.33;;
20865;SDS011;10593;48.398;10.698;2024-03-06T05:51:39;9.60;;;8.80;;
20865;SDS011;10593;48.398;10.698;2024-03-06T05:54:04;9.70;;;8.90;;
20865;SDS011;10593;48.398;10.698;2024-03-06T05:56:33;9.90;;;9.10;;
20865;SDS011;10593;48.398;10.698;2024-03-06T05:58:59;9.80;;;9.00;;
20865;SDS011;10593;48.398;10.698;2024-03-06T06:01:29;10.47;;;9.50;;
20865;SDS011;10593;48.398;10.698;2024-03-06T06:03:56;9.57;;;8.77;;
20865;SDS011;10593;48.398;10.698;2024-03-06T06:06:21;10.90;;;9.90;;
20865;SDS011;10593;48.398;10.698;2024-03-06T06:08:47;10.63;;;9.73;;
20865;SDS011;10593;48.398;10.698;2024-03-06T06:11:13;10.97;;;9.97;;
20865;SDS011;10593;48.398;10.698;2024-03-06T06:13:39;10.43;;;9.53;;
20865;SDS011;10593;48.398;10.698;2024-03-06T06:16:05;11.70;;;10.70;;
20865;SDS011;10593;48.398;10.698;2024-03-06T06:18:31;10.53;;;9.60;;
20865;SDS011;10593;48.398;10.698;2024-03-06T06:20:57;10.60;;;9.63;;
20865;SDS011;10593;48.398;10.698;2024-03-06T06:23:24;10.53;;;9.63;;
20865;SDS011;10593;48.398;10.698;2024-03-06T06:25:49;11.20;;;10.17;;
20865;SDS011;10593;48.398;10.698;2024-03-06T06:28:15;10.83;;;9.93;;
20865;SDS011;10593;48.398;10.698;2024-03-06T06:30:41;11.17;;;10.17;;
20865;SDS011;10593;48.398;10.698;2024-03-06T06:33:07;11.47;;;10.37;;
20865;SDS011;10593;48.398;10.698;2024-03-06T06:35:33;11.07;;;10.13;;
20865;SDS011;10593;48.398;10.698;2024-03-06T06:38:02;11.10;;;10.10;;
20865;SDS011;10593;48.398;10.698;2024-03-06T06:40:29;11.37;;;10.37;;
20865;SDS011;10593;48.398;10.698;2024-03-06T06:42:55;11.17;;;10.17;;
20865;SDS011;10593;48.398;10.698;2024-03-06T06:45:21;11.53;;;10.53;;
20865;SDS011;10593;48.398;10.698;2024-03-06T06:47:48;11.77;;;10.70;;
20865;SDS011;10593;48.398;10.698;2024-03-06T06:50:15;11.03;;;10.03;;
20865;SDS011;10593;48.398;10.698;2024-03-06T06:52:41;10.73;;;9.80;;
20865;SDS011;10593;48.398;10.698;2024-03-06T06:55:07;9.80;;;8.90;;
20865;SDS011;10593;48.398;10.698;2024-03-06T06:57:36;10.10;;;9.20;;
20865;SDS011;10593;48.398;10.698;2024-03-06T07:00:03;10.67;;;9.67;;
20865;SDS011;10593;48.398;10.698;2024-03-06T07:02:37;9.77;;;8.87;;
20865;SDS011;10593;48.398;10.698;2024-03-06T07:05:06;10.10;;;9.20;;
20865;SDS011;10593;48.398;10.698;2024-03-06T07:07:33;8.93;;;8.17;;
20865;SDS011;10593;48.398;10.698;2024-03-06T07:10:03;9.37;;;8.57;;
20865;SDS011;10593;48.398;10.698;2024-03-06T07:12:30;8.67;;;7.87;;
20865;SDS011;10593;48.398;10.698;2024-03-06T07:14:56;8.17;;;7.53;;
20865;SDS011;10593;48.398;10.698;2024-03-06T07:17:24;9.07;;;8.23;;
20865;SDS011;10593;48.398;10.698;2024-03-06T07:19:50;8.37;;;7.67;;
20865;SDS011;10593;48.398;10.698;2024-03-06T07:22:17;8.53;;;7.83;;
20865;SDS011;10593;48.398;10.698;2024-03-06T07:24:43;7.90;;;7.20;;
20865;SDS011;10593;48.398;10.698;2024-03-06T07:27:09;7.57;;;6.97;;
20865;SDS011;10593;48.398;10.698;2024-03-06T07:29:36;7.80;;;7.10;;
20865;SDS011;10593;48.398;10.698;2024-03-06T07:32:02;8.10;;;7.30;;
20865;SDS011;10593;48.398;10.698;2024-03-06T07:34:30;7.53;;;6.90;;
20865;SDS011;10593;48.398;10.698;2024-03-06T07:36:56;7.57;;;6.93;;
20865;SDS011;10593;48.398;10.698;2024-03-06T07:39:25;9.10;;;6.70;;
20865;SDS011;10593;48.398;10.698;2024-03-06T07:41:51;7.03;;;6.43;;
20865;SDS011;10593;48.398;10.698;2024-03-06T07:44:18;7.27;;;6.57;;
20865;SDS011;10593;48.398;10.698;2024-03-06T07:46:45;6.40;;;5.90;;
20865;SDS011;10593;48.398;10.698;2024-03-06T07:49:10;6.87;;;6.27;;
20865;SDS011;10593;48.398;10.698;2024-03-06T07:51:36;6.97;;;6.37;;
20865;SDS011;10593;48.398;10.698;2024-03-06T07:54:02;6.63;;;6.03;;
20865;SDS011;10593;48.398;10.698;2024-03-06T07:56:30;6.40;;;5.90;;
20865;SDS011;10593;48.398;10.698;2024-03-06T07:58:56;5.70;;;5.30;;
20865;SDS011;10593;48.398;10.698;2024-03-06T08:01:22;6.27;;;5.77;;
20865;SDS011;10593;48.398;10.698;2024-03-06T08:03:49;6.50;;;5.90;;
20865;SDS011;10593;48.398;10.698;2024-03-06T08:06:14;5.57;;;5.17;;
20865;SDS011;10593;48.398;10.698;2024-03-06T08:08:40;5.40;;;5.00;;
20865;SDS011;10593;48.398;10.698;2024-03-06T08:11:10;6.07;;;5.57;;
20865;SDS011;10593;48.398;10.698;2024-03-06T08:13:37;5.77;;;5.27;;
20865;SDS011;10593;48.398;10.698;2024-03-06T08:16:03;5.20;;;4.80;;
20865;SDS011;10593;48.398;10.698;2024-03-06T08:18:30;5.87;;;5.37;;
20865;SDS011;10593;48.398;10.698;2024-03-06T08:20:57;5.30;;;4.90;;
20865;SDS011;10593;48.398;10.698;2024-03-06T08:23:23;5.27;;;4.87;;
20865;SDS011;10593;48.398;10.698;2024-03-06T08:25:49;5.20;;;4.80;;
20865;SDS011;10593;48.398;10.698;2024-03-06T08:28:16;5.70;;;5.20;;
20865;SDS011;10593;48.398;10.698;2024-03-06T08:30:42;5.53;;;5.13;;
20865;SDS011;10593;48.398;10.698;2024-03-06T08:33:09;5.30;;;4.90;;
20865;SDS011;10593;48.398;10.698;2024-03-06T08:35:35;4.40;;;4.10;;
20865;SDS011;10593;48.398;10.698;2024-03-06T08:38:01;5.83;;;5.33;;
20865;SDS011;10593;48.398;10.698;2024-03-06T08:40:42;4.63;;;4.33;;
20865;SDS011;10593;48.398;10.698;2024-03-06T08:43:10;5.20;;;4.80;;
20865;SDS011;10593;48.398;10.698;2024-03-06T08:45:37;4.53;;;4.13;;
20865;SDS011;10593;48.398;10.698;2024-03-06T08:48:04;4.67;;;4.33;;
20865;SDS011;10593;48.398;10.698;2024-03-06T08:50:30;4.73;;;4.33;;
20865;SDS011;10593;48.398;10.698;2024-03-06T08:52:56;5.53;;;5.10;;
20865;SDS011;10593;48.398;10.698;2024-03-06T08:55:22;5.53;;;5.03;;
20865;SDS011;10593;48.398;10.698;2024-03-06T08:57:47;4.80;;;4.40;;
20865;SDS011;10593;48.398;10.698;2024-03-06T09:00:15;5.30;;;4.83;;
20865;SDS011;10593;48.398;10.698;2024-03-06T09:02:42;5.00;;;4.60;;
20865;SDS011;10593;48.398;10.698;2024-03-06T09:05:08;4.77;;;4.37;;
20865;SDS011;10593;48.398;10.698;2024-03-06T09:07:36;5.07;;;4.67;;
20865;SDS011;10593;48.398;10.698;2024-03-06T09:10:09;5.23;;;4.83;;
20865;SDS011;10593;48.398;10.698;2024-03-06T09:12:36;4.63;;;4.23;;
20865;SDS011;10593;48.398;10.698;2024-03-06T09:15:02;4.57;;;4.17;;
20865;SDS011;10593;48.398;10.698;2024-03-06T09:17:29;5.27;;;4.87;;
20865;SDS011;10593;48.398;10.698;2024-03-06T09:19:55;6.17;;;5.57;;
20865;SDS011;10593;48.398;10.698;2024-03-06T09:22:21;6.80;;;6.20;;
20865;SDS011;10593;48.398;10.698;2024-03-06T09:24:47;6.43;;;5.90;;
20865;SDS011;10593;48.398;10.698;2024-03-06T09:27:13;6.97;;;6.27;;
20865;SDS011;10593;48.398;10.698;2024-03-06T09:29:40;7.27;;;6.57;;
20865;SDS011;10593;48.398;10.698;2024-03-06T09:32:06;8.30;;;7.50;;
20865;SDS011;10593;48.398;10.698;2024-03-06T09:34:32;7.60;;;6.90;;
20865;SDS011;10593;48.398;10.698;2024-03-06T09:36:57;7.27;;;6.57;;
20865;SDS011;10593;48.398;10.698;2024-03-06T09:39:24;8.23;;;7.03;;
20865;SDS011;10593;48.398;10.698;2024-03-06T09:41:50;7.90;;;7.20;;
20865;SDS011;10593;48.398;10.698;2024-03-06T09:44:16;9.03;;;7.83;;
20865;SDS011;10593;48.398;10.698;2024-03-06T09:46:43;8.43;;;7.63;;
20865;SDS011;10593;48.398;10.698;2024-03-06T09:49:11;9.17;;;8.27;;
20865;SDS011;10593;48.398;10.698;2024-03-06T09:51:46;9.10;;;8.20;;
20865;SDS011;10593;48.398;10.698;2024-03-06T09:54:17;9.70;;;8.60;;
20865;SDS011;10593;48.398;10.698;2024-03-06T09:56:44;9.77;;;8.77;;
20865;SDS011;10593;48.398;10.698;2024-03-06T09:59:12;10.20;;;9.17;;
20865;SDS011;10593;48.398;10.698;2024-03-06T10:01:48;9.83;;;8.87;;
20865;SDS011;10593;48.398;10.698;2024-03-06T10:04:23;10.00;;;9.00;;
20865;SDS011;10593;48.398;10.698;2024-03-06T10:06:53;10.70;;;9.60;;
20865;SDS011;10593;48.398;10.698;2024-03-06T10:09:22;11.10;;;9.97;;
20865;SDS011;10593;48.398;10.698;2024-03-06T10:11:49;9.87;;;8.87;;
20865;SDS011;10593;48.398;10.698;2024-03-06T10:14:18;10.20;;;9.03;;
20865;SDS011;10593;48.398;10.698;2024-03-06T10:16:56;10.83;;;9.53;;
20865;SDS011;10593;48.398;10.698;2024-03-06T10:19:25;11.00;;;9.87;;
20865;SDS011;10593;48.398;10.698;2024-03-06T10:21:53;12.20;;;11.00;;
20865;SDS011;10593;48.398;10.698;2024-03-06T10:24:22;12.33;;;11.03;;
20865;SDS011;10593;48.398;10.698;2024-03-06T10:26:50;11.93;;;10.63;;
20865;SDS011;10593;48.398;10.698;2024-03-06T10:29:21;12.47;;;11.17;;
20865;SDS011;10593;48.398;10.698;2024-03-06T10:31:50;13.23;;;11.63;;
20865;SDS011;10593;48.398;10.698;2024-03-06T10:34:22;13.43;;;12.03;;
20865;SDS011;10593;48.398;10.698;2024-03-06T10:36:56;13.17;;;11.87;;
20865;SDS011;10593;48.398;10.698;2024-03-06T10:39:28;12.37;;;11.07;;
20865;SDS011;10593;48.398;10.698;2024-03-06T10:41:59;12.53;;;10.73;;
20865;SDS011;10593;48.398;10.698;2024-03-06T10:44:30;12.87;;;10.87;;
20865;SDS011;10593;48.398;10.698;2024-03-06T10:47:02;13.27;;;11.60;;
20865;SDS011;10593;48.398;10.698;2024-03-06T10:49:31;12.07;;;10.87;;
20865;SDS011;10593;48.398;10.698;2024-03-06T10:54:28;11.60;;;9.67;;
20865;SDS011;10593;48.398;10.698;2024-03-06T10:56:57;11.43;;;10.33;;
20865;SDS011;10593;48.398;10.698;2024-03-06T10:59:27;11.60;;;10.40;;
20865;SDS011;10593;48.398;10.698;2024-03-06T11:01:55;12.57;;;11.17;;
20865;SDS011;10593;48.398;10.698;2024-03-06T11:04:23;13.50;;;12.10;;
20865;SDS011;10593;48.398;10.698;2024-03-06T11:06:53;13.00;;;11.70;;
20865;SDS011;10593;48.398;10.698;2024-03-06T11:09:24;11.80;;;10.60;;
20865;SDS011;10593;48.398;10.698;2024-03-06T11:11:51;12.87;;;11.47;;
20865;SDS011;10593;48.398;10.698;2024-03-06T11:14:22;12.17;;;10.93;;
20865;SDS011;10593;48.398;10.698;2024-03-06T11:19:27;13.27;;;11.33;;
20865;SDS011;10593;48.398;10.698;2024-03-06T11:21:54;12.37;;;11.07;;
20865;SDS011;10593;48.398;10.698;2024-03-06T11:24:21;12.77;;;11.47;;
20865;SDS011;10593;48.398;10.698;2024-03-06T11:29:29;12.80;;;10.90;;
20865;SDS011;10593;48.398;10.698;2024-03-06T11:32:36;12.17;;;10.87;;
20865;SDS011;10593;48.398;10.698;2024-03-06T11:35:22;12.93;;;11.50;;
20865;SDS011;10593;48.398;10.698;2024-03-06T11:37:49;14.33;;;12.23;;
20865;SDS011;10593;48.398;10.698;2024-03-06T11:40:22;13.37;;;11.97;;
20865;SDS011;10593;48.398;10.698;2024-03-06T11:42:51;13.50;;;12.20;;
20865;SDS011;10593;48.398;10.698;2024-03-06T11:45:17;14.17;;;12.67;;
20865;SDS011;10593;48.398;10.698;2024-03-06T11:47:56;13.83;;;12.43;;
20865;SDS011;10593;48.398;10.698;2024-03-06T11:50:27;13.43;;;11.93;;
20865;SDS011;10593;48.398;10.698;2024-03-06T11:52:56;13.23;;;11.93;;
20865;SDS011;10593;48.398;10.698;2024-03-06T11:55:23;13.20;;;11.60;;
20865;SDS011;10593;48.398;10.698;2024-03-06T11:57:51;13.73;;;12.33;;
20865;SDS011;10593;48.398;10.698;2024-03-06T12:00:18;11.87;;;10.53;;
20865;SDS011;10593;48.398;10.698;2024-03-06T12:02:50;13.27;;;11.83;;
20865;SDS011;10593;48.398;10.698;2024-03-06T12:05:17;11.30;;;10.00;;
20865;SDS011;10593;48.398;10.698;2024-03-06T12:07:49;13.10;;;11.07;;
20865;SDS011;10593;48.398;10.698;2024-03-06T12:10:16;12.37;;;10.43;;
20865;SDS011;10593;48.398;10.698;2024-03-06T12:12:43;11.83;;;10.33;;
20865;SDS011;10593;48.398;10.698;2024-03-06T12:15:13;10.20;;;9.20;;
20865;SDS011;10593;48.398;10.698;2024-03-06T12:17:49;10.80;;;9.20;;
20865;SDS011;10593;48.398;10.698;2024-03-06T12:20:18;10.00;;;9.00;;
20865;SDS011;10593;48.398;10.698;2024-03-06T12:22:50;10.87;;;9.77;;
20865;SDS011;10593;48.398;10.698;2024-03-06T12:25:21;11.27;;;10.00;;
20865;SDS011;10593;48.398;10.698;2024-03-06T12:27:53;11.37;;;10.17;;
20865;SDS011;10593;48.398;10.698;2024-03-06T12:30:20;10.97;;;9.83;;
20865;SDS011;10593;48.398;10.698;2024-03-06T12:32:57;12.87;;;10.50;;
20865;SDS011;10593;48.398;10.698;2024-03-06T12:35:24;12.47;;;10.73;;
20865;SDS011;10593;48.398;10.698;2024-03-06T12:37:51;11.07;;;9.87;;
20865;SDS011;10593;48.398;10.698;2024-03-06T12:40:17;11.70;;;10.57;;
20865;SDS011;10593;48.398;10.698;2024-03-06T12:42:44;13.03;;;11.43;;
20865;SDS011;10593;48.398;10.698;2024-03-06T12:45:11;14.77;;;11.63;;
20865;SDS011;10593;48.398;10.698;2024-03-06T12:47:43;12.63;;;11.33;;
20865;SDS011;10593;48.398;10.698;2024-03-06T12:50:13;13.07;;;10.67;;
20865;SDS011;10593;48.398;10.698;2024-03-06T12:52:39;13.30;;;11.90;;
20865;SDS011;10593;48.398;10.698;2024-03-06T12:55:06;12.30;;;11.03;;
20865;SDS011;10593;48.398;10.698;2024-03-06T12:57:32;14.50;;;12.43;;
20865;SDS011;10593;48.398;10.698;2024-03-06T12:59:59;14.97;;;12.40;;
20865;SDS011;10593;48.398;10.698;2024-03-06T13:02:25;13.97;;;12.57;;
20865;SDS011;10593;48.398;10.698;2024-03-06T13:04:51;13.43;;;11.97;;
20865;SDS011;10593;48.398;10.698;2024-03-06T13:07:17;14.97;;;13.40;;
20865;SDS011;10593;48.398;10.698;2024-03-06T13:09:43;16.10;;;13.30;;
20865;SDS011;10593;48.398;10.698;2024-03-06T13:12:09;14.17;;;12.77;;
20865;SDS011;10593;48.398;10.698;2024-03-06T13:14:35;16.40;;;14.53;;
20865;SDS011;10593;48.398;10.698;2024-03-06T13:17:01;15.40;;;13.80;;
20865;SDS011;10593;48.398;10.698;2024-03-06T13:19:27;15.57;;;13.63;;
20865;SDS011;10593;48.398;10.698;2024-03-06T13:21:53;14.73;;;13.10;;
20865;SDS011;10593;48.398;10.698;2024-03-06T13:24:19;14.83;;;13.23;;
20865;SDS011;10593;48.398;10.698;2024-03-06T13:26:45;14.63;;;13.23;;
20865;SDS011;10593;48.398;10.698;2024-03-06T13:29:12;14.70;;;13.20;;
20865;SDS011;10593;48.398;10.698;2024-03-06T13:31:38;16.87;;;14.53;;
20865;SDS011;10593;48.398;10.698;2024-03-06T13:34:04;14.83;;;13.27;;
20865;SDS011;10593;48.398;10.698;2024-03-06T13:36:30;15.33;;;13.73;;
20865;SDS011;10593;48.398;10.698;2024-03-06T13:38:56;14.97;;;13.37;;
20865;SDS011;10593;48.398;10.698;2024-03-06T13:41:22;14.93;;;13.50;;
20865;SDS011;10593;48.398;10.698;2024-03-06T13:43:48;14.93;;;13.43;;
20865;SDS011;10593;48.398;10.698;2024-03-06T13:46:14;14.60;;;13.07;;
20865;SDS011;10593;48.398;10.698;2024-03-06T13:48:40;14.43;;;12.93;;
20865;SDS011;10593;48.398;10.698;2024-03-06T13:51:06;13.50;;;12.03;;
20865;SDS011;10593;48.398;10.698;2024-03-06T13:53:31;13.70;;;12.20;;
20865;SDS011;10593;48.398;10.698;2024-03-06T13:55:57;14.03;;;12.53;;
20865;SDS011;10593;48.398;10.698;2024-03-06T13:58:24;13.90;;;12.40;;
20865;SDS011;10593;48.398;10.698;2024-03-06T14:00:49;14.73;;;12.30;;
20865;SDS011;10593;48.398;10.698;2024-03-06T14:03:16;13.87;;;11.83;;
20865;SDS011;10593;48.398;10.698;2024-03-06T14:05:41;13.00;;;11.70;;
20865;SDS011;10593;48.398;10.698;2024-03-06T14:08:07;14.10;;;12.20;;
20865;SDS011;10593;48.398;10.698;2024-03-06T14:10:36;14.07;;;12.67;;
20865;SDS011;10593;48.398;10.698;2024-03-06T14:13:04;13.00;;;11.70;;
20865;SDS011;10593;48.398;10.698;2024-03-06T14:15:31;12.60;;;11.30;;
20865;SDS011;10593;48.398;10.698;2024-03-06T14:17:57;12.60;;;11.20;;
20865;SDS011;10593;48.398;10.698;2024-03-06T14:20:23;13.97;;;12.20;;
20865;SDS011;10593;48.398;10.698;2024-03-06T14:22:49;12.77;;;11.40;;
20865;SDS011;10593;48.398;10.698;2024-03-06T14:25:15;13.50;;;12.10;;
20865;SDS011;10593;48.398;10.698;2024-03-06T14:27:41;12.40;;;11.20;;
20865;SDS011;10593;48.398;10.698;2024-03-06T14:30:07;14.57;;;12.13;;
20865;SDS011;10593;48.398;10.698;2024-03-06T14:32:33;12.70;;;11.40;;